createdAt,value
2022-11-19T00:01:31.067Z,3.90
2022-11-19T00:06:34.261Z,3.90
2022-11-19T00:11:56.209Z,3.70
2022-11-19T00:16:59.420Z,3.80
2022-11-19T00:22:02.732Z,4.90
2022-11-19T00:27:06.254Z,6.20
2022-11-19T00:32:09.557Z,3.40
2022-11-19T00:37:12.770Z,4.00
2022-11-19T00:42:16.080Z,4.60
2022-11-19T00:47:19.697Z,4.80
2022-11-19T00:52:22.903Z,4.30
2022-11-19T00:57:26.109Z,3.50
2022-11-19T01:02:29.422Z,4.60
2022-11-19T01:07:32.686Z,4.80
2022-11-19T01:12:56.013Z,4.60
2022-11-19T01:17:59.222Z,6.00
2022-11-19T01:23:02.530Z,4.40
2022-11-19T01:28:06.966Z,8.20
2022-11-19T01:33:10.792Z,4.00
2022-11-19T01:38:14.104Z,5.40
2022-11-19T01:43:17.412Z,4.70
2022-11-19T01:48:32.600Z,4.90
2022-11-19T01:53:37.039Z,7.20
2022-11-19T02:03:47.280Z,4.80
2022-11-19T02:08:50.963Z,4.70
2022-11-19T02:14:03.491Z,4.20
2022-11-19T02:19:32.611Z,4.60
2022-11-19T02:24:53.636Z,8.60
2022-11-19T02:30:05.134Z,12.00
2022-11-19T02:35:23.600Z,5.00
2022-11-19T02:40:33.671Z,5.10
2022-11-19T02:46:01.761Z,4.60
2022-11-19T02:51:07.723Z,5.20
2022-11-19T02:56:17.819Z,6.10
2022-11-19T03:01:41.951Z,6.50
2022-11-19T03:06:45.624Z,5.50
2022-11-19T03:11:57.842Z,6.10
2022-11-19T03:17:13.541Z,6.40
2022-11-19T03:22:25.355Z,7.00
2022-11-19T03:27:38.600Z,6.40
2022-11-19T03:33:08.123Z,6.40
2022-11-19T03:38:18.499Z,6.10
2022-11-19T03:43:28.163Z,6.20
2022-11-19T03:48:31.776Z,6.00
2022-11-19T03:53:35.190Z,6.90
2022-11-19T03:58:44.331Z,6.10
2022-11-19T04:04:07.514Z,6.40
2022-11-19T04:09:11.031Z,5.70
2022-11-19T04:14:14.441Z,6.00
2022-11-19T04:19:18.605Z,5.50
2022-11-19T04:24:22.090Z,6.50
2022-11-19T04:29:25.502Z,6.20
2022-11-19T04:34:29.021Z,7.20
2022-11-19T04:39:32.435Z,8.00
2022-11-19T04:44:35.943Z,4.80
2022-11-19T04:49:39.357Z,6.70
2022-11-19T04:54:42.773Z,5.10
2022-11-19T04:59:46.286Z,3.80
2022-11-19T05:04:49.704Z,4.80
2022-11-19T05:09:53.113Z,13.90
2022-11-19T05:14:56.729Z,3.60
2022-11-19T05:20:00.552Z,3.50
2022-11-19T05:25:04.478Z,3.50
2022-11-19T05:30:08.716Z,4.60
2022-11-19T05:35:12.021Z,5.00
2022-11-19T05:40:15.536Z,4.30
2022-11-19T05:45:19.157Z,3.30
2022-11-19T05:50:22.671Z,3.30
2022-11-19T05:55:26.186Z,5.20
2022-11-19T06:00:29.642Z,4.20
2022-11-19T06:05:38.774Z,4.40
2022-11-19T06:10:43.594Z,5.50
2022-11-19T06:15:47.314Z,5.00
2022-11-19T06:20:50.627Z,5.40
2022-11-19T06:25:55.061Z,5.30
2022-11-19T06:30:58.372Z,5.80
2022-11-19T06:36:01.900Z,6.20
2022-11-19T06:41:06.019Z,6.70
2022-11-19T06:46:11.073Z,4.10
2022-11-19T06:51:14.382Z,4.90
2022-11-19T06:56:17.898Z,5.60
2022-11-19T07:01:21.330Z,6.30
2022-11-19T07:06:24.825Z,5.30
2022-11-19T07:11:28.244Z,6.00
2022-11-19T07:16:34.734Z,5.30
2022-11-19T07:21:38.342Z,5.00
2022-11-19T07:26:41.862Z,5.60
2022-11-19T07:31:47.214Z,5.60
2022-11-19T07:36:50.832Z,7.00
2022-11-19T07:42:13.087Z,6.30
2022-11-19T07:47:16.605Z,6.40
2022-11-19T07:52:20.119Z,6.80
2022-11-19T07:57:29.903Z,6.90
2022-11-19T08:02:33.916Z,6.90
2022-11-19T08:07:38.534Z,7.00
2022-11-19T08:18:12.824Z,6.10
2022-11-19T08:23:16.335Z,7.00
2022-11-19T08:28:19.856Z,6.80
2022-11-19T08:33:23.375Z,8.10
2022-11-19T08:39:00.779Z,7.40
2022-11-19T08:44:04.293Z,8.00
2022-11-19T08:49:08.527Z,8.90
2022-11-19T08:54:13.422Z,7.60
2022-11-19T08:59:17.053Z,5.90
2022-11-19T09:04:21.049Z,5.80
2022-11-19T09:09:24.856Z,6.50
2022-11-19T09:14:28.560Z,7.80
2022-11-19T09:19:31.870Z,7.40
2022-11-19T09:24:35.387Z,9.00
2022-11-19T09:29:38.803Z,9.80
2022-11-19T09:34:42.316Z,10.70
2022-11-19T09:39:46.241Z,7.90
2022-11-19T09:45:10.959Z,8.10
2022-11-19T09:50:21.841Z,9.10
2022-11-19T09:55:44.122Z,8.40
2022-11-19T10:00:47.611Z,8.00
2022-11-19T10:05:56.661Z,7.80
2022-11-19T10:11:06.523Z,8.70
2022-11-19T10:16:09.834Z,9.10
2022-11-19T10:21:30.860Z,9.10
2022-11-19T10:26:41.031Z,8.80
2022-11-19T10:31:49.874Z,8.20
2022-11-19T10:37:07.642Z,9.10
2022-11-19T10:42:26.700Z,7.80
2022-11-19T10:47:37.488Z,7.30
2022-11-19T10:52:45.619Z,8.90
2022-11-19T10:57:52.710Z,7.50
2022-11-19T11:03:03.266Z,7.30
2022-11-19T11:08:11.620Z,8.10
2022-11-19T11:13:47.798Z,7.00
2022-11-19T11:18:54.048Z,6.40
2022-11-19T11:23:58.153Z,7.60
2022-11-19T11:29:24.151Z,8.30
2022-11-19T11:34:31.981Z,6.10
2022-11-19T11:39:39.271Z,6.50
2022-11-19T11:44:52.619Z,6.10
2022-11-19T11:50:12.212Z,6.70
2022-11-19T11:55:24.643Z,6.40
2022-11-19T12:00:39.108Z,6.30
2022-11-19T12:06:02.718Z,7.10
2022-11-19T12:11:54.362Z,6.60
2022-11-19T12:17:00.517Z,6.10
2022-11-19T12:22:16.216Z,4.80
2022-11-19T12:27:28.846Z,5.90
2022-11-19T12:32:47.411Z,5.40
2022-11-19T12:38:06.190Z,5.20
2022-11-19T12:43:46.877Z,4.20
2022-11-19T12:48:50.285Z,5.60
2022-11-19T12:53:56.365Z,4.30
2022-11-19T12:59:41.660Z,5.90
2022-11-19T13:10:06.405Z,8.00
2022-11-19T13:15:21.491Z,7.80
2022-11-19T13:20:31.971Z,6.40
2022-11-19T13:25:47.878Z,7.90
2022-11-19T13:30:54.258Z,6.90
2022-11-19T13:36:09.958Z,7.40
2022-11-19T13:41:23.716Z,9.60
2022-11-19T13:46:30.917Z,5.60
2022-11-19T13:51:37.405Z,8.00
2022-11-19T13:56:47.678Z,10.20
2022-11-19T14:02:31.026Z,7.50
2022-11-19T14:07:55.124Z,9.00
2022-11-19T14:13:26.086Z,11.30
2022-11-19T14:19:01.449Z,13.80
2022-11-19T14:24:45.616Z,13.60
2022-11-19T14:29:49.439Z,7.60
2022-11-19T14:35:01.555Z,7.80
2022-11-19T14:40:15.821Z,8.30
2022-11-19T14:45:20.729Z,8.00
2022-11-19T14:50:29.258Z,7.80
2022-11-19T14:55:34.776Z,8.40
2022-11-19T15:00:41.491Z,8.60
2022-11-19T15:05:46.813Z,7.50
2022-11-19T15:11:05.394Z,8.10
2022-11-19T15:16:12.483Z,13.40
2022-11-19T15:21:59.823Z,17.80
2022-11-19T15:27:15.425Z,19.10
2022-11-19T15:32:28.157Z,22.30
2022-11-19T15:37:53.690Z,13.30
2022-11-19T15:43:14.202Z,16.60
2022-11-19T15:48:24.015Z,12.40
2022-11-19T15:53:28.501Z,23.00
2022-11-19T15:58:43.283Z,13.30
2022-11-19T16:03:47.719Z,23.60
2022-11-19T16:14:17.277Z,12.30
2022-11-19T16:19:21.266Z,15.80
2022-11-19T16:24:45.507Z,12.90
2022-11-19T16:29:49.349Z,13.90
2022-11-19T16:34:52.851Z,13.10
2022-11-19T16:39:56.462Z,14.40
2022-11-19T16:45:08.697Z,11.10
2022-11-19T16:50:42.455Z,16.70
2022-11-19T16:55:52.374Z,16.50
2022-11-19T17:00:59.754Z,13.20
2022-11-19T17:06:04.832Z,14.40
2022-11-19T17:11:41.115Z,14.40
2022-11-19T17:16:52.312Z,17.70
2022-11-19T17:22:18.273Z,17.30
2022-11-19T17:27:33.138Z,14.50
2022-11-19T17:37:44.114Z,14.70
2022-11-19T17:43:06.105Z,12.80
2022-11-19T17:48:22.318Z,12.60
2022-11-19T17:53:25.736Z,14.00
2022-11-19T17:58:29.350Z,10.90
2022-11-19T18:03:32.868Z,12.80
2022-11-19T18:08:37.305Z,18.80
2022-11-19T18:13:42.686Z,13.10
2022-11-19T18:18:46.315Z,14.10
2022-11-19T18:23:52.364Z,9.60
2022-11-19T18:28:56.898Z,8.70
2022-11-19T18:39:03.623Z,7.80
2022-11-19T18:44:30.073Z,7.40
2022-11-19T18:49:35.323Z,7.90
2022-11-19T18:54:38.745Z,8.90
2022-11-19T18:59:42.360Z,6.20
2022-11-19T19:04:50.679Z,9.90
2022-11-19T19:09:54.614Z,10.10
2022-11-19T19:14:59.256Z,12.60
2022-11-19T19:25:06.397Z,12.90
2022-11-19T19:30:10.595Z,10.20
2022-11-19T19:35:13.932Z,11.80
2022-11-19T19:40:17.449Z,8.00
2022-11-19T19:45:20.863Z,10.40
2022-11-19T19:50:24.171Z,10.60
2022-11-19T19:55:27.686Z,8.50
2022-11-19T20:00:31.202Z,10.50
2022-11-19T20:05:34.615Z,12.00
2022-11-19T20:10:38.132Z,10.00
2022-11-19T20:15:41.646Z,10.80
2022-11-19T20:20:45.162Z,8.40
2022-11-19T20:25:51.344Z,10.10
2022-11-19T20:31:08.454Z,10.60
2022-11-19T20:36:14.879Z,9.90
2022-11-19T20:41:38.237Z,10.30
2022-11-19T20:46:42.794Z,10.60
2022-11-19T20:51:46.813Z,10.30
2022-11-19T20:56:52.371Z,9.80
2022-11-19T21:01:57.159Z,10.40
2022-11-19T21:07:00.612Z,10.60
2022-11-19T21:12:04.763Z,9.50
2022-11-19T21:17:08.069Z,10.80
2022-11-19T21:22:11.590Z,10.70
2022-11-19T21:27:15.101Z,10.40
2022-11-19T21:32:18.924Z,11.70
2022-11-19T21:37:22.336Z,10.80
2022-11-19T21:42:26.263Z,10.60
2022-11-19T21:47:29.674Z,13.00
2022-11-19T21:52:33.196Z,11.90
2022-11-19T21:57:36.602Z,12.40
2022-11-19T22:02:40.325Z,11.90
2022-11-19T22:07:46.503Z,12.60
2022-11-19T22:12:49.914Z,12.40
2022-11-19T22:17:53.432Z,15.10
2022-11-19T22:22:58.487Z,11.80
2022-11-19T22:28:02.204Z,11.50
2022-11-19T22:33:05.821Z,10.10
2022-11-19T22:38:09.240Z,12.10
2022-11-19T22:43:12.751Z,13.00
2022-11-19T22:48:16.263Z,10.90
2022-11-19T22:53:19.785Z,8.90
2022-11-19T22:58:23.297Z,10.10
2022-11-19T23:03:27.327Z,12.10
2022-11-19T23:08:30.845Z,13.00
2022-11-19T23:13:39.288Z,11.80
2022-11-19T23:18:50.570Z,11.60
2022-11-19T23:23:54.907Z,9.50
2022-11-19T23:28:59.138Z,11.00
2022-11-19T23:34:02.548Z,12.90
2022-11-19T23:39:09.907Z,11.20
2022-11-19T23:44:13.475Z,12.10
2022-11-19T23:49:16.986Z,11.00
2022-11-19T23:54:20.502Z,12.40
2022-11-19T23:59:25.771Z,11.50
